sensor_id;sensor_type;location;lat;lon;timestamp;pressure;altitude;pressure_sealevel;temperature;humidity
56414;BME280;42318;48.452;19.526;2024-02-14T00:00:22;98655.94;;;21.85;52.80
56414;BME280;42318;48.452;19.526;2024-02-14T00:03:45;98649.91;;;21.78;52.76
56414;BME280;42318;48.452;19.526;2024-02-14T00:06:45;98669.31;;;21.86;52.94
56414;BME280;42318;48.452;19.526;2024-02-14T00:09:47;98662.47;;;21.79;52.97
56414;BME280;42318;48.452;19.526;2024-02-14T00:12:47;98666.84;;;21.85;52.72
56414;BME280;42318;48.452;19.526;2024-02-14T00:15:48;98669.31;;;21.86;53.12
56414;BME280;42318;48.452;19.526;2024-02-14T00:18:49;98673.94;;;21.86;52.43
56414;BME280;42318;48.452;19.526;2024-02-14T00:21:51;98678.59;;;21.85;52.57
56414;BME280;42318;48.452;19.526;2024-02-14T00:24:51;98681.56;;;21.84;52.48
56414;BME280;42318;48.452;19.526;2024-02-14T00:27:52;98662.47;;;21.84;52.19
56414;BME280;42318;48.452;19.526;2024-02-14T00:30:54;98669.03;;;21.83;52.41
56414;BME280;42318;48.452;19.526;2024-02-14T00:33:55;98662.75;;;21.82;52.49
56414;BME280;42318;48.452;19.526;2024-02-14T00:36:56;98676.38;;;21.82;52.44
56414;BME280;42318;48.452;19.526;2024-02-14T00:39:56;98683.75;;;21.82;52.07
56414;BME280;42318;48.452;19.526;2024-02-14T00:42:58;98671.75;;;21.83;52.52
56414;BME280;42318;48.452;19.526;2024-02-14T00:45:58;98681.03;;;21.82;52.48
56414;BME280;42318;48.452;19.526;2024-02-14T00:48:59;98671.16;;;21.76;51.92
56414;BME280;42318;48.452;19.526;2024-02-14T00:52:00;98665.97;;;21.74;52.07
56414;BME280;42318;48.452;19.526;2024-02-14T00:55:00;98687.56;;;21.81;51.54
56414;BME280;42318;48.452;19.526;2024-02-14T00:58:04;98688.66;;;21.80;52.11
56414;BME280;42318;48.452;19.526;2024-02-14T01:01:05;98688.91;;;21.78;51.91
56414;BME280;42318;48.452;19.526;2024-02-14T01:04:05;98688.09;;;21.78;52.08
56414;BME280;42318;48.452;19.526;2024-02-14T01:07:07;98689.72;;;21.79;51.66
56414;BME280;42318;48.452;19.526;2024-02-14T01:10:09;98684.28;;;21.79;51.90
56414;BME280;42318;48.452;19.526;2024-02-14T01:13:10;98687.00;;;21.79;51.98
56414;BME280;42318;48.452;19.526;2024-02-14T01:16:10;98688.34;;;21.76;51.78
56414;BME280;42318;48.452;19.526;2024-02-14T01:19:11;98689.16;;;21.77;51.72
56414;BME280;42318;48.452;19.526;2024-02-14T01:22:12;98695.44;;;21.77;51.76
56414;BME280;42318;48.452;19.526;2024-02-14T01:25:16;98695.72;;;21.76;51.45
56414;BME280;42318;48.452;19.526;2024-02-14T01:28:17;98687.75;;;21.69;51.87
56414;BME280;42318;48.452;19.526;2024-02-14T01:31:17;98698.69;;;21.74;51.23
56414;BME280;42318;48.452;19.526;2024-02-14T01:34:18;98682.53;;;21.68;51.22
56414;BME280;42318;48.452;19.526;2024-02-14T01:37:19;98702.50;;;21.73;51.37
56414;BME280;42318;48.452;19.526;2024-02-14T01:40:21;98701.69;;;21.73;51.67
56414;BME280;42318;48.452;19.526;2024-02-14T01:43:21;98698.16;;;21.72;51.22
56414;BME280;42318;48.452;19.526;2024-02-14T01:46:22;98697.31;;;21.72;51.42
56414;BME280;42318;48.452;19.526;2024-02-14T01:49:23;98700.03;;;21.72;51.17
56414;BME280;42318;48.452;19.526;2024-02-14T01:52:24;98686.34;;;21.67;51.57
56414;BME280;42318;48.452;19.526;2024-02-14T01:55:25;98694.59;;;21.72;51.36
56414;BME280;42318;48.452;19.526;2024-02-14T01:58:29;98686.69;;;21.70;51.28
56414;BME280;42318;48.452;19.526;2024-02-14T02:01:30;98693.50;;;21.73;51.08
56414;BME280;42318;48.452;19.526;2024-02-14T02:04:32;98675.44;;;21.67;50.93
56414;BME280;42318;48.452;19.526;2024-02-14T02:07:33;98690.22;;;21.71;50.84
56414;BME280;42318;48.452;19.526;2024-02-14T02:10:34;98692.69;;;21.72;50.90
56414;BME280;42318;48.452;19.526;2024-02-14T02:13:34;98694.59;;;21.72;50.62
56414;BME280;42318;48.452;19.526;2024-02-14T02:16:35;98695.41;;;21.72;51.05
56414;BME280;42318;48.452;19.526;2024-02-14T02:19:37;98684.97;;;21.64;50.74
56414;BME280;42318;48.452;19.526;2024-02-14T02:22:43;98705.50;;;21.72;51.05
56414;BME280;42318;48.452;19.526;2024-02-14T02:25:44;98699.22;;;21.71;50.98
56414;BME280;42318;48.452;19.526;2024-02-14T02:28:45;98696.75;;;21.70;50.68
56414;BME280;42318;48.452;19.526;2024-02-14T02:31:47;98710.97;;;21.72;50.97
56414;BME280;42318;48.452;19.526;2024-02-14T02:34:47;98710.41;;;21.70;50.72
56414;BME280;42318;48.452;19.526;2024-02-14T02:37:48;98714.75;;;21.71;50.78
56414;BME280;42318;48.452;19.526;2024-02-14T02:40:51;98709.31;;;21.71;50.36
56414;BME280;42318;48.452;19.526;2024-02-14T02:43:51;98704.88;;;21.64;50.58
56414;BME280;42318;48.452;19.526;2024-02-14T02:46:53;98727.84;;;21.69;50.14
56414;BME280;42318;48.452;19.526;2024-02-14T02:49:55;98730.31;;;21.70;50.39
56414;BME280;42318;48.452;19.526;2024-02-14T02:52:57;98728.41;;;21.71;50.28
56414;BME280;42318;48.452;19.526;2024-02-14T02:55:58;98737.66;;;21.70;50.61
56414;BME280;42318;48.452;19.526;2024-02-14T02:59:00;98729.47;;;21.70;50.59
56414;BME280;42318;48.452;19.526;2024-02-14T03:02:03;98734.13;;;21.69;50.48
56414;BME280;42318;48.452;19.526;2024-02-14T03:05:08;98739.56;;;21.69;50.50
56414;BME280;42318;48.452;19.526;2024-02-14T03:08:10;98742.53;;;21.68;50.65
56414;BME280;42318;48.452;19.526;2024-02-14T03:11:16;98744.19;;;21.69;50.61
56414;BME280;42318;48.452;19.526;2024-02-14T03:14:17;98749.66;;;21.69;50.38
56414;BME280;42318;48.452;19.526;2024-02-14T03:17:18;98734.84;;;21.59;50.35
56414;BME280;42318;48.452;19.526;2024-02-14T03:20:18;98757.25;;;21.67;50.57
56414;BME280;42318;48.452;19.526;2024-02-14T03:23:20;98743.00;;;21.59;50.68
56414;BME280;42318;48.452;19.526;2024-02-14T03:26:20;98741.38;;;21.58;50.49
56414;BME280;42318;48.452;19.526;2024-02-14T03:29:21;98755.59;;;21.66;50.67
56414;BME280;42318;48.452;19.526;2024-02-14T03:32:21;98764.34;;;21.68;50.24
56414;BME280;42318;48.452;19.526;2024-02-14T03:35:24;98763.28;;;21.69;50.21
56414;BME280;42318;48.452;19.526;2024-02-14T03:38:27;98758.88;;;21.68;50.74
56414;BME280;42318;48.452;19.526;2024-02-14T03:41:28;98771.47;;;21.69;50.75
56414;BME280;42318;48.452;19.526;2024-02-14T03:44:29;98768.75;;;21.69;50.87
56414;BME280;42318;48.452;19.526;2024-02-14T03:47:30;98778.56;;;21.70;50.63
56414;BME280;42318;48.452;19.526;2024-02-14T03:50:31;98775.25;;;21.68;50.79
56414;BME280;42318;48.452;19.526;2024-02-14T03:53:33;98775.78;;;21.64;50.86
56414;BME280;42318;48.452;19.526;2024-02-14T03:56:33;98784.50;;;21.67;50.61
56414;BME280;42318;48.452;19.526;2024-02-14T03:59:37;98797.06;;;21.68;50.30
56414;BME280;42318;48.452;19.526;2024-02-14T04:02:39;98787.75;;;21.63;50.45
56414;BME280;42318;48.452;19.526;2024-02-14T04:05:40;98785.84;;;21.64;50.37
56414;BME280;42318;48.452;19.526;2024-02-14T04:08:40;98784.72;;;21.60;50.49
56414;BME280;42318;48.452;19.526;2024-02-14T04:11:41;98795.38;;;21.61;50.35
56414;BME280;42318;48.452;19.526;2024-02-14T04:14:42;98801.41;;;21.63;50.46
56414;BME280;42318;48.452;19.526;2024-02-14T04:17:42;98807.69;;;21.64;50.41
56414;BME280;42318;48.452;19.526;2024-02-14T04:20:43;98809.84;;;21.62;50.01
56414;BME280;42318;48.452;19.526;2024-02-14T04:23:44;98823.22;;;21.63;50.05
56414;BME280;42318;48.452;19.526;2024-02-14T04:26:45;98821.56;;;21.62;50.45
56414;BME280;42318;48.452;19.526;2024-02-14T04:29:46;98810.06;;;21.55;49.70
56414;BME280;42318;48.452;19.526;2024-02-14T04:32:46;98823.72;;;21.60;50.19
56414;BME280;42318;48.452;19.526;2024-02-14T04:35:47;98830.84;;;21.61;50.25
56414;BME280;42318;48.452;19.526;2024-02-14T04:38:49;98827.84;;;21.63;49.87
56414;BME280;42318;48.452;19.526;2024-02-14T04:41:49;98836.28;;;21.61;50.08
56414;BME280;42318;48.452;19.526;2024-02-14T04:44:50;98832.72;;;21.61;50.20
56414;BME280;42318;48.452;19.526;2024-02-14T04:47:51;98830.56;;;21.63;50.10
56414;BME280;42318;48.452;19.526;2024-02-14T04:50:52;98837.09;;;21.62;49.78
56414;BME280;42318;48.452;19.526;2024-02-14T04:53:53;98835.47;;;21.61;49.61
56414;BME280;42318;48.452;19.526;2024-02-14T04:56:54;98831.91;;;21.60;49.76
56414;BME280;42318;48.452;19.526;2024-02-14T04:59:55;98840.09;;;21.60;49.66
56414;BME280;42318;48.452;19.526;2024-02-14T05:02:55;98842.81;;;21.60;49.88
56414;BME280;42318;48.452;19.526;2024-02-14T05:05:57;98847.44;;;21.60;49.80
56414;BME280;42318;48.452;19.526;2024-02-14T05:08:59;98848.53;;;21.59;49.68
56414;BME280;42318;48.452;19.526;2024-02-14T05:12:00;98852.91;;;21.60;49.58
56414;BME280;42318;48.452;19.526;2024-02-14T05:15:00;98850.66;;;21.52;50.10
56414;BME280;42318;48.452;19.526;2024-02-14T05:18:02;98855.88;;;21.58;49.57
56414;BME280;42318;48.452;19.526;2024-02-14T05:21:07;98869.53;;;21.58;49.88
56414;BME280;42318;48.452;19.526;2024-02-14T05:24:08;98873.31;;;21.57;49.44
56414;BME280;42318;48.452;19.526;2024-02-14T05:27:08;98872.50;;;21.57;49.86
56414;BME280;42318;48.452;19.526;2024-02-14T05:30:09;98879.59;;;21.58;49.52
56414;BME280;42318;48.452;19.526;2024-02-14T05:33:10;98883.41;;;21.57;49.72
56414;BME280;42318;48.452;19.526;2024-02-14T05:36:11;98885.31;;;21.56;49.47
56414;BME280;42318;48.452;19.526;2024-02-14T05:39:12;98879.88;;;21.56;49.59
56414;BME280;42318;48.452;19.526;2024-02-14T05:42:14;98886.13;;;21.57;49.37
56414;BME280;42318;48.452;19.526;2024-02-14T05:45:16;98886.41;;;21.55;49.44
56414;BME280;42318;48.452;19.526;2024-02-14T05:48:17;98898.94;;;21.56;49.33
56414;BME280;42318;48.452;19.526;2024-02-14T05:51:17;98896.47;;;21.55;49.38
56414;BME280;42318;48.452;19.526;2024-02-14T05:54:19;98902.75;;;21.55;49.84
56414;BME280;42318;48.452;19.526;2024-02-14T05:57:20;98891.59;;;21.57;49.48
56414;BME280;42318;48.452;19.526;2024-02-14T06:00:21;98903.31;;;21.57;49.60
56414;BME280;42318;48.452;19.526;2024-02-14T06:03:22;98904.41;;;21.56;49.53
56414;BME280;42318;48.452;19.526;2024-02-14T06:06:23;98901.41;;;21.58;49.58
56414;BME280;42318;48.452;19.526;2024-02-14T06:09:24;98906.06;;;21.57;49.58
56414;BME280;42318;48.452;19.526;2024-02-14T06:12:25;98913.97;;;21.59;49.84
56414;BME280;42318;48.452;19.526;2024-02-14T06:15:25;98913.16;;;21.58;49.99
56414;BME280;42318;48.452;19.526;2024-02-14T06:18:26;98917.53;;;21.59;50.07
56414;BME280;42318;48.452;19.526;2024-02-14T06:21:27;98919.69;;;21.57;49.77
56414;BME280;42318;48.452;19.526;2024-02-14T06:24:28;98922.41;;;21.57;49.74
56414;BME280;42318;48.452;19.526;2024-02-14T06:27:28;98921.59;;;21.57;49.87
56414;BME280;42318;48.452;19.526;2024-02-14T06:30:29;98913.66;;;21.55;49.34
56414;BME280;42318;48.452;19.526;2024-02-14T06:33:29;98925.38;;;21.56;49.28
56414;BME280;42318;48.452;19.526;2024-02-14T06:36:30;98921.84;;;21.55;49.89
56414;BME280;42318;48.452;19.526;2024-02-14T06:39:31;98928.38;;;21.54;49.63
56414;BME280;42318;48.452;19.526;2024-02-14T06:42:32;98919.13;;;21.55;49.42
56414;BME280;42318;48.452;19.526;2024-02-14T06:45:32;98928.38;;;21.54;49.47
56414;BME280;42318;48.452;19.526;2024-02-14T06:48:33;98911.69;;;21.51;49.30
56414;BME280;42318;48.452;19.526;2024-02-14T06:51:34;98926.78;;;21.58;49.73
56414;BME280;42318;48.452;19.526;2024-02-14T06:54:35;98931.72;;;21.61;49.61
56414;BME280;42318;48.452;19.526;2024-02-14T06:57:35;98930.66;;;21.62;49.77
56414;BME280;42318;48.452;19.526;2024-02-14T07:00:36;98930.94;;;21.66;49.82
56414;BME280;42318;48.452;19.526;2024-02-14T07:03:36;98937.22;;;21.67;49.46
56414;BME280;42318;48.452;19.526;2024-02-14T07:06:37;98940.78;;;21.67;49.67
56414;BME280;42318;48.452;19.526;2024-02-14T07:09:38;98942.69;;;21.67;49.54
56414;BME280;42318;48.452;19.526;2024-02-14T07:12:39;98941.69;;;21.73;49.62
56414;BME280;42318;48.452;19.526;2024-02-14T07:15:40;98946.06;;;21.74;49.79
56414;BME280;42318;48.452;19.526;2024-02-14T07:18:41;98939.28;;;21.76;49.87
56414;BME280;42318;48.452;19.526;2024-02-14T07:21:41;98939.78;;;21.73;49.91
56414;BME280;42318;48.452;19.526;2024-02-14T07:24:42;98945.03;;;21.80;49.96
56414;BME280;42318;48.452;19.526;2024-02-14T07:27:43;98954.09;;;21.85;49.76
56414;BME280;42318;48.452;19.526;2024-02-14T07:30:44;98956.81;;;21.85;49.66
56414;BME280;42318;48.452;19.526;2024-02-14T07:33:44;98949.78;;;21.89;49.80
56414;BME280;42318;48.452;19.526;2024-02-14T07:36:47;98951.41;;;21.90;50.00
56414;BME280;42318;48.452;19.526;2024-02-14T07:39:47;98940.47;;;21.85;50.11
56414;BME280;42318;48.452;19.526;2024-02-14T07:42:48;98947.88;;;21.90;50.10
56414;BME280;42318;48.452;19.526;2024-02-14T07:45:49;98946.78;;;21.91;50.28
56414;BME280;42318;48.452;19.526;2024-02-14T07:48:50;98946.53;;;21.92;50.34
56414;BME280;42318;48.452;19.526;2024-02-14T07:51:51;98956.94;;;21.95;50.33
56414;BME280;42318;48.452;19.526;2024-02-14T07:54:55;98946.56;;;21.98;50.26
56414;BME280;42318;48.452;19.526;2024-02-14T07:57:56;98954.75;;;21.98;50.50
56414;BME280;42318;48.452;19.526;2024-02-14T08:00:57;98958.56;;;21.97;50.82
56414;BME280;42318;48.452;19.526;2024-02-14T08:03:59;98948.19;;;21.93;50.73
56414;BME280;42318;48.452;19.526;2024-02-14T08:07:00;98965.16;;;22.01;50.91
56414;BME280;42318;48.452;19.526;2024-02-14T08:10:00;98961.34;;;22.02;50.72
56414;BME280;42318;48.452;19.526;2024-02-14T08:13:01;98951.47;;;21.95;50.76
56414;BME280;42318;48.452;19.526;2024-02-14T08:16:06;98952.94;;;22.03;50.75
56414;BME280;42318;48.452;19.526;2024-02-14T08:19:07;98950.94;;;21.99;50.64
56414;BME280;42318;48.452;19.526;2024-02-14T08:22:07;98968.78;;;22.06;50.72
56414;BME280;42318;48.452;19.526;2024-02-14T08:25:08;98944.38;;;21.94;50.94
56414;BME280;42318;48.452;19.526;2024-02-14T08:28:09;98980.28;;;22.08;50.69
56414;BME280;42318;48.452;19.526;2024-02-14T08:31:11;98965.72;;;22.03;50.78
56414;BME280;42318;48.452;19.526;2024-02-14T08:34:12;98974.34;;;22.11;51.04
56414;BME280;42318;48.452;19.526;2024-02-14T08:37:13;98966.06;;;22.06;50.97
56414;BME280;42318;48.452;19.526;2024-02-14T08:40:14;98978.72;;;22.12;50.92
56414;BME280;42318;48.452;19.526;2024-02-14T08:43:15;98975.72;;;22.14;51.12
56414;BME280;42318;48.452;19.526;2024-02-14T08:46:17;98965.81;;;22.08;50.97
56414;BME280;42318;48.452;19.526;2024-02-14T08:49:18;98974.38;;;22.16;50.75
56414;BME280;42318;48.452;19.526;2024-02-14T08:52:19;98981.47;;;22.17;50.86
56414;BME280;42318;48.452;19.526;2024-02-14T08:55:20;98965.63;;;22.14;50.90
56414;BME280;42318;48.452;19.526;2024-02-14T08:58:20;98970.06;;;22.20;51.42
56414;BME280;42318;48.452;19.526;2024-02-14T09:01:22;98963.25;;;22.23;51.73
56414;BME280;42318;48.452;19.526;2024-02-14T09:04:23;98960.00;;;22.26;52.17
56414;BME280;42318;48.452;19.526;2024-02-14T09:07:24;98955.09;;;22.28;52.41
56414;BME280;42318;48.452;19.526;2024-02-14T09:10:24;98959.47;;;22.29;52.39
56414;BME280;42318;48.452;19.526;2024-02-14T09:13:26;98963.84;;;22.30;52.30
56414;BME280;42318;48.452;19.526;2024-02-14T09:16:27;98955.66;;;22.30;52.36
56414;BME280;42318;48.452;19.526;2024-02-14T09:19:28;98963.03;;;22.30;52.17
56414;BME280;42318;48.452;19.526;2024-02-14T09:22:30;98960.31;;;22.30;52.12
56414;BME280;42318;48.452;19.526;2024-02-14T09:25:31;98966.59;;;22.30;52.23
56414;BME280;42318;48.452;19.526;2024-02-14T09:28:32;98962.72;;;22.26;52.45
56414;BME280;42318;48.452;19.526;2024-02-14T09:31:33;98959.47;;;22.29;52.30
56414;BME280;42318;48.452;19.526;2024-02-14T09:34:34;98965.19;;;22.28;52.20
56414;BME280;42318;48.452;19.526;2024-02-14T09:37:35;98961.38;;;22.29;52.20
56414;BME280;42318;48.452;19.526;2024-02-14T09:40:40;98964.13;;;22.29;51.88
56414;BME280;42318;48.452;19.526;2024-02-14T09:43:44;98957.78;;;22.23;52.14
56414;BME280;42318;48.452;19.526;2024-02-14T09:46:45;98967.94;;;22.28;52.10
56414;BME280;42318;48.452;19.526;2024-02-14T09:49:46;98961.66;;;22.27;51.76
56414;BME280;42318;48.452;19.526;2024-02-14T09:52:50;98966.84;;;22.29;51.78
56414;BME280;42318;48.452;19.526;2024-02-14T09:55:51;98955.38;;;22.27;51.66
56414;BME280;42318;48.452;19.526;2024-02-14T09:58:53;98953.72;;;22.25;51.80
56414;BME280;42318;48.452;19.526;2024-02-14T10:01:57;98957.00;;;22.28;51.88
56414;BME280;42318;48.452;19.526;2024-02-14T10:04:57;98952.38;;;22.28;51.68
56414;BME280;42318;48.452;19.526;2024-02-14T10:07:59;98955.94;;;22.29;51.68
56414;BME280;42318;48.452;19.526;2024-02-14T10:11:01;98952.13;;;22.30;51.54
56414;BME280;42318;48.452;19.526;2024-02-14T10:14:05;98943.94;;;22.30;51.34
56414;BME280;42318;48.452;19.526;2024-02-14T10:17:17;98923.66;;;22.20;51.25
56414;BME280;42318;48.452;19.526;2024-02-14T10:20:22;98942.84;;;22.31;51.25
56414;BME280;42318;48.452;19.526;2024-02-14T10:23:23;98935.72;;;22.30;51.28
56414;BME280;42318;48.452;19.526;2024-02-14T10:26:27;98925.63;;;22.30;51.24
56414;BME280;42318;48.452;19.526;2024-02-14T10:29:28;98926.47;;;22.31;51.12
56414;BME280;42318;48.452;19.526;2024-02-14T10:32:30;98923.22;;;22.34;51.11
56414;BME280;42318;48.452;19.526;2024-02-14T10:35:30;98924.84;;;22.35;51.28
56414;BME280;42318;48.452;19.526;2024-02-14T10:38:32;98914.50;;;22.37;51.42
56414;BME280;42318;48.452;19.526;2024-02-14T10:41:36;98919.13;;;22.36;51.77
56414;BME280;42318;48.452;19.526;2024-02-14T10:44:37;98906.28;;;22.32;51.69
56414;BME280;42318;48.452;19.526;2024-02-14T10:47:40;98916.97;;;22.38;51.48
56414;BME280;42318;48.452;19.526;2024-02-14T10:50:44;98914.78;;;22.40;51.85
56414;BME280;42318;48.452;19.526;2024-02-14T10:53:46;98908.00;;;22.43;51.74
56414;BME280;42318;48.452;19.526;2024-02-14T10:56:50;98905.25;;;22.43;52.13
56414;BME280;42318;48.452;19.526;2024-02-14T10:59:53;98909.91;;;22.42;51.88
56414;BME280;42318;48.452;19.526;2024-02-14T11:02:55;98899.25;;;22.41;51.98
56414;BME280;42318;48.452;19.526;2024-02-14T11:05:56;98896.50;;;22.41;52.21
56414;BME280;42318;48.452;19.526;2024-02-14T11:09:03;98887.72;;;22.34;52.09
56414;BME280;42318;48.452;19.526;2024-02-14T11:12:12;98902.53;;;22.43;52.34
56414;BME280;42318;48.452;19.526;2024-02-14T11:15:23;98895.97;;;22.44;52.34
56414;BME280;42318;48.452;19.526;2024-02-14T11:18:26;98888.28;;;22.36;52.43
56414;BME280;42318;48.452;19.526;2024-02-14T11:21:30;98898.97;;;22.42;51.94
56414;BME280;42318;48.452;19.526;2024-02-14T11:24:31;98895.41;;;22.42;52.13
56414;BME280;42318;48.452;19.526;2024-02-14T11:27:35;98882.81;;;22.36;51.93
56414;BME280;42318;48.452;19.526;2024-02-14T11:30:36;98893.78;;;22.41;51.61
56414;BME280;42318;48.452;19.526;2024-02-14T11:33:36;98886.41;;;22.41;51.70
56414;BME280;42318;48.452;19.526;2024-02-14T11:36:38;98878.47;;;22.40;51.21
56414;BME280;42318;48.452;19.526;2024-02-14T11:39:39;98864.25;;;22.33;50.90
56414;BME280;42318;48.452;19.526;2024-02-14T11:42:40;98875.19;;;22.38;50.71
56414;BME280;42318;48.452;19.526;2024-02-14T11:45:41;98865.91;;;22.39;50.78
56414;BME280;42318;48.452;19.526;2024-02-14T11:48:42;98862.38;;;22.38;50.85
56414;BME280;42318;48.452;19.526;2024-02-14T11:51:46;98847.34;;;22.36;50.58
56414;BME280;42318;48.452;19.526;2024-02-14T11:54:48;98863.72;;;22.36;50.48
56414;BME280;42318;48.452;19.526;2024-02-14T11:57:49;98850.88;;;22.36;50.55
56414;BME280;42318;48.452;19.526;2024-02-14T12:00:51;98856.34;;;22.36;50.61
56414;BME280;42318;48.452;19.526;2024-02-14T12:03:52;98852.22;;;22.34;50.87
56414;BME280;42318;48.452;19.526;2024-02-14T12:06:53;98857.13;;;22.32;50.70
56414;BME280;42318;48.452;19.526;2024-02-14T12:09:55;98850.03;;;22.31;51.11
56414;BME280;42318;48.452;19.526;2024-02-14T12:12:55;98848.94;;;22.32;50.89
56414;BME280;42318;48.452;19.526;2024-02-14T12:15:56;98853.84;;;22.30;51.22
56414;BME280;42318;48.452;19.526;2024-02-14T12:19:15;98851.94;;;22.30;51.03
56414;BME280;42318;48.452;19.526;2024-02-14T12:22:16;98852.47;;;22.27;51.57
56414;BME280;42318;48.452;19.526;2024-02-14T12:25:20;98856.84;;;22.28;51.11
56414;BME280;42318;48.452;19.526;2024-02-14T12:28:22;98844.53;;;22.25;51.60
56414;BME280;42318;48.452;19.526;2024-02-14T12:31:24;98834.97;;;22.23;51.53
56414;BME280;42318;48.452;19.526;2024-02-14T12:34:27;98839.34;;;22.24;51.80
56414;BME280;42318;48.452;19.526;2024-02-14T12:37:28;98845.63;;;22.24;51.61
56414;BME280;42318;48.452;19.526;2024-02-14T12:40:29;98842.06;;;22.24;51.59
56414;BME280;42318;48.452;19.526;2024-02-14T12:43:30;98839.59;;;22.22;51.92
56414;BME280;42318;48.452;19.526;2024-02-14T12:46:31;98829.75;;;22.21;51.53
56414;BME280;42318;48.452;19.526;2024-02-14T12:49:31;98828.38;;;22.19;51.60
56414;BME280;42318;48.452;19.526;2024-02-14T12:52:33;98833.28;;;22.17;51.41
56414;BME280;42318;48.452;19.526;2024-02-14T12:55:35;98810.25;;;22.08;51.40
56414;BME280;42318;48.452;19.526;2024-02-14T12:58:36;98824.53;;;22.15;51.49
56414;BME280;42318;48.452;19.526;2024-02-14T13:01:36;98834.06;;;22.12;51.50
56414;BME280;42318;48.452;19.526;2024-02-14T13:04:37;98823.38;;;22.11;51.67
56414;BME280;42318;48.452;19.526;2024-02-14T13:07:39;98825.56;;;22.09;51.51
56414;BME280;42318;48.452;19.526;2024-02-14T13:10:40;98826.38;;;22.09;51.20
56414;BME280;42318;48.452;19.526;2024-02-14T13:13:40;98815.66;;;22.03;51.25
56414;BME280;42318;48.452;19.526;2024-02-14T13:16:43;98819.78;;;22.05;51.09
56414;BME280;42318;48.452;19.526;2024-02-14T13:19:43;98815.16;;;22.06;50.94
56414;BME280;42318;48.452;19.526;2024-02-14T13:22:44;98811.53;;;22.00;50.93
56414;BME280;42318;48.452;19.526;2024-02-14T13:25:44;98809.91;;;21.99;50.73
56414;BME280;42318;48.452;19.526;2024-02-14T13:28:45;98812.31;;;21.95;50.88
56414;BME280;42318;48.452;19.526;2024-02-14T13:31:46;98810.97;;;21.98;51.04
56414;BME280;42318;48.452;19.526;2024-02-14T13:34:47;98816.69;;;21.97;50.93
56414;BME280;42318;48.452;19.526;2024-02-14T13:37:49;98812.88;;;21.98;51.30
56414;BME280;42318;48.452;19.526;2024-02-14T13:40:50;98812.06;;;21.97;51.50
56414;BME280;42318;48.452;19.526;2024-02-14T13:43:51;98817.78;;;21.95;51.11
56414;BME280;42318;48.452;19.526;2024-02-14T13:46:52;98808.22;;;21.93;51.26
56414;BME280;42318;48.452;19.526;2024-02-14T13:49:53;98816.41;;;21.93;51.05
56414;BME280;42318;48.452;19.526;2024-02-14T13:52:54;98814.19;;;21.90;50.87
56414;BME280;42318;48.452;19.526;2024-02-14T13:55:55;98817.47;;;21.92;51.25
56414;BME280;42318;48.452;19.526;2024-02-14T13:58:56;98814.75;;;21.92;51.10
56414;BME280;42318;48.452;19.526;2024-02-14T14:01:57;98808.13;;;21.83;51.40
56414;BME280;42318;48.452;19.526;2024-02-14T14:04:57;98803.50;;;21.83;51.52
56414;BME280;42318;48.452;19.526;2024-02-14T14:07:58;98821.81;;;21.88;51.60
56414;BME280;42318;48.452;19.526;2024-02-14T14:11:02;98814.97;;;21.85;51.15
56414;BME280;42318;48.452;19.526;2024-02-14T16:35:45;98877.97;;;21.57;53.50
56414;BME280;42318;48.452;19.526;2024-02-14T16:38:46;98875.50;;;21.55;53.35
56414;BME280;42318;48.452;19.526;2024-02-14T16:41:47;98875.50;;;21.55;53.46
56414;BME280;42318;48.452;19.526;2024-02-14T16:44:48;98879.03;;;21.56;53.81
56414;BME280;42318;48.452;19.526;2024-02-14T16:47:48;98883.16;;;21.58;53.33
56414;BME280;42318;48.452;19.526;2024-02-14T16:50:49;98889.69;;;21.57;53.30
56414;BME280;42318;48.452;19.526;2024-02-14T16:53:50;98881.75;;;21.56;53.00
56414;BME280;42318;48.452;19.526;2024-02-14T16:56:51;98893.50;;;21.56;53.28
56414;BME280;42318;48.452;19.526;2024-02-14T16:59:52;98896.22;;;21.56;53.17
56414;BME280;42318;48.452;19.526;2024-02-14T17:02:53;98898.13;;;21.56;53.22
56414;BME280;42318;48.452;19.526;2024-02-14T17:05:53;98896.72;;;21.53;52.85
56414;BME280;42318;48.452;19.526;2024-02-14T17:08:55;98897.25;;;21.50;53.00
56414;BME280;42318;48.452;19.526;2024-02-14T17:11:56;98904.09;;;21.53;52.79
56414;BME280;42318;48.452;19.526;2024-02-14T17:14:57;98899.47;;;21.53;52.77
56414;BME280;42318;48.452;19.526;2024-02-14T17:17:57;98904.09;;;21.53;52.74
56414;BME280;42318;48.452;19.526;2024-02-14T17:20:58;98906.25;;;21.51;52.32
56414;BME280;42318;48.452;19.526;2024-02-14T17:24:00;98905.94;;;21.47;52.48
56414;BME280;42318;48.452;19.526;2024-02-14T17:27:01;98916.34;;;21.50;52.55
56414;BME280;42318;48.452;19.526;2024-02-14T17:30:02;98908.97;;;21.51;52.49
56414;BME280;42318;48.452;19.526;2024-02-14T17:33:10;98913.88;;;21.49;52.09
56414;BME280;42318;48.452;19.526;2024-02-14T17:36:10;98900.69;;;21.41;51.91
56414;BME280;42318;48.452;19.526;2024-02-14T17:39:11;98917.66;;;21.48;52.25
56414;BME280;42318;48.452;19.526;2024-02-14T17:42:11;98925.03;;;21.47;51.83
56414;BME280;42318;48.452;19.526;2024-02-14T17:45:12;98917.34;;;21.44;51.92
56414;BME280;42318;48.452;19.526;2024-02-14T17:48:14;98920.91;;;21.45;52.31
56414;BME280;42318;48.452;19.526;2024-02-14T17:51:15;98913.81;;;21.44;51.86
56414;BME280;42318;48.452;19.526;2024-02-14T17:54:15;98918.44;;;21.43;51.59
56414;BME280;42318;48.452;19.526;2024-02-14T17:57:17;98917.63;;;21.43;52.01
56414;BME280;42318;48.452;19.526;2024-02-14T18:00:19;98920.03;;;21.39;52.02
56414;BME280;42318;48.452;19.526;2024-02-14T18:03:20;98914.81;;;21.38;51.85
56414;BME280;42318;48.452;19.526;2024-02-14T18:06:21;98923.00;;;21.38;51.72
56414;BME280;42318;48.452;19.526;2024-02-14T18:09:21;98918.81;;;21.30;52.04